sensor_id;sensor_type;location;lat;lon;timestamp;P1;durP1;ratioP1;P2;durP2;ratioP2
27113;SDS011;14648;49.730;8.614;2023-05-10T00:00:20;0.90;;;0.90;;
27113;SDS011;14648;49.730;8.614;2023-05-10T00:02:47;2.33;;;1.00;;
27113;SDS011;14648;49.730;8.614;2023-05-10T00:05:13;0.80;;;0.80;;
27113;SDS011;14648;49.730;8.614;2023-05-10T00:07:39;0.80;;;0.80;;
27113;SDS011;14648;49.730;8.614;2023-05-10T00:10:06;2.30;;;1.07;;
27113;SDS011;14648;49.730;8.614;2023-05-10T00:12:32;2.80;;;1.00;;
27113;SDS011;14648;49.730;8.614;2023-05-10T00:14:57;1.57;;;1.10;;
27113;SDS011;14648;49.730;8.614;2023-05-10T00:17:23;0.93;;;0.87;;
27113;SDS011;14648;49.730;8.614;2023-05-10T00:19:49;0.90;;;0.90;;
27113;SDS011;14648;49.730;8.614;2023-05-10T00:22:14;1.00;;;1.00;;
27113;SDS011;14648;49.730;8.614;2023-05-10T00:24:40;1.00;;;0.90;;
27113;SDS011;14648;49.730;8.614;2023-05-10T00:27:06;1.77;;;1.00;;
27113;SDS011;14648;49.730;8.614;2023-05-10T00:29:31;1.03;;;0.93;;
27113;SDS011;14648;49.730;8.614;2023-05-10T00:31:58;0.80;;;0.80;;
27113;SDS011;14648;49.730;8.614;2023-05-10T00:34:24;0.80;;;0.80;;
27113;SDS011;14648;49.730;8.614;2023-05-10T00:36:50;1.87;;;1.10;;
27113;SDS011;14648;49.730;8.614;2023-05-10T00:39:15;1.00;;;0.90;;
27113;SDS011;14648;49.730;8.614;2023-05-10T00:41:41;2.30;;;1.00;;
27113;SDS011;14648;49.730;8.614;2023-05-10T00:44:06;2.07;;;1.10;;
27113;SDS011;14648;49.730;8.614;2023-05-10T00:46:32;2.37;;;0.90;;
27113;SDS011;14648;49.730;8.614;2023-05-10T00:48:58;1.43;;;1.33;;
27113;SDS011;14648;49.730;8.614;2023-05-10T00:51:24;2.40;;;1.43;;
27113;SDS011;14648;49.730;8.614;2023-05-10T00:53:50;0.97;;;0.97;;
27113;SDS011;14648;49.730;8.614;2023-05-10T00:56:16;1.33;;;1.23;;
27113;SDS011;14648;49.730;8.614;2023-05-10T00:58:42;1.37;;;1.00;;
27113;SDS011;14648;49.730;8.614;2023-05-10T01:01:08;3.53;;;1.13;;
27113;SDS011;14648;49.730;8.614;2023-05-10T01:03:35;1.27;;;1.13;;
27113;SDS011;14648;49.730;8.614;2023-05-10T01:06:01;1.23;;;1.13;;
27113;SDS011;14648;49.730;8.614;2023-05-10T01:08:28;1.40;;;1.30;;
27113;SDS011;14648;49.730;8.614;2023-05-10T01:10:54;1.77;;;1.53;;
27113;SDS011;14648;49.730;8.614;2023-05-10T01:13:28;1.80;;;1.67;;
27113;SDS011;14648;49.730;8.614;2023-05-10T01:15:59;1.50;;;1.40;;
27113;SDS011;14648;49.730;8.614;2023-05-10T01:18:27;3.70;;;1.47;;
27113;SDS011;14648;49.730;8.614;2023-05-10T01:23:45;1.43;;;1.33;;
27113;SDS011;14648;49.730;8.614;2023-05-10T01:29:41;1.20;;;1.10;;
27113;SDS011;14648;49.730;8.614;2023-05-10T01:33:08;7.23;;;1.13;;
27113;SDS011;14648;49.730;8.614;2023-05-10T01:38:20;2.60;;;1.37;;
27113;SDS011;14648;49.730;8.614;2023-05-10T01:44:18;1.57;;;1.47;;
27113;SDS011;14648;49.730;8.614;2023-05-10T01:46:59;2.50;;;1.27;;
27113;SDS011;14648;49.730;8.614;2023-05-10T01:49:32;1.10;;;1.10;;
27113;SDS011;14648;49.730;8.614;2023-05-10T01:52:25;3.70;;;1.50;;
27113;SDS011;14648;49.730;8.614;2023-05-10T01:55:01;1.20;;;1.20;;
27113;SDS011;14648;49.730;8.614;2023-05-10T01:57:33;1.33;;;1.27;;
27113;SDS011;14648;49.730;8.614;2023-05-10T02:00:02;6.30;;;2.00;;
27113;SDS011;14648;49.730;8.614;2023-05-10T02:02:30;1.60;;;1.50;;
27113;SDS011;14648;49.730;8.614;2023-05-10T02:05:02;1.60;;;1.50;;
27113;SDS011;14648;49.730;8.614;2023-05-10T02:07:31;2.10;;;1.87;;
27113;SDS011;14648;49.730;8.614;2023-05-10T02:10:00;1.50;;;1.40;;
27113;SDS011;14648;49.730;8.614;2023-05-10T02:12:27;1.53;;;1.43;;
27113;SDS011;14648;49.730;8.614;2023-05-10T02:14:54;1.70;;;1.60;;
27113;SDS011;14648;49.730;8.614;2023-05-10T02:17:21;6.30;;;1.80;;
27113;SDS011;14648;49.730;8.614;2023-05-10T02:19:48;2.73;;;1.90;;
27113;SDS011;14648;49.730;8.614;2023-05-10T02:22:16;2.23;;;1.67;;
27113;SDS011;14648;49.730;8.614;2023-05-10T02:24:43;2.00;;;1.90;;
27113;SDS011;14648;49.730;8.614;2023-05-10T02:27:10;1.87;;;1.70;;
27113;SDS011;14648;49.730;8.614;2023-05-10T02:29:37;3.27;;;1.47;;
27113;SDS011;14648;49.730;8.614;2023-05-10T02:32:04;2.80;;;1.90;;
27113;SDS011;14648;49.730;8.614;2023-05-10T02:34:31;2.70;;;2.50;;
27113;SDS011;14648;49.730;8.614;2023-05-10T02:36:57;2.00;;;1.90;;
27113;SDS011;14648;49.730;8.614;2023-05-10T02:39:24;1.60;;;1.50;;
27113;SDS011;14648;49.730;8.614;2023-05-10T02:41:53;1.87;;;1.77;;
27113;SDS011;14648;49.730;8.614;2023-05-10T02:44:20;1.67;;;1.57;;
27113;SDS011;14648;49.730;8.614;2023-05-10T02:46:47;2.33;;;1.60;;
27113;SDS011;14648;49.730;8.614;2023-05-10T02:49:13;1.33;;;1.23;;
27113;SDS011;14648;49.730;8.614;2023-05-10T02:51:47;1.50;;;1.40;;
27113;SDS011;14648;49.730;8.614;2023-05-10T02:54:20;1.93;;;1.73;;
27113;SDS011;14648;49.730;8.614;2023-05-10T02:56:57;3.00;;;1.80;;
27113;SDS011;14648;49.730;8.614;2023-05-10T02:59:25;3.00;;;1.93;;
27113;SDS011;14648;49.730;8.614;2023-05-10T03:01:52;1.80;;;1.70;;
27113;SDS011;14648;49.730;8.614;2023-05-10T03:04:18;1.60;;;1.50;;
27113;SDS011;14648;49.730;8.614;2023-05-10T03:06:44;3.47;;;1.60;;
27113;SDS011;14648;49.730;8.614;2023-05-10T03:09:10;1.73;;;1.63;;
27113;SDS011;14648;49.730;8.614;2023-05-10T03:14:57;2.43;;;1.53;;
27113;SDS011;14648;49.730;8.614;2023-05-10T03:17:40;1.50;;;1.40;;
27113;SDS011;14648;49.730;8.614;2023-05-10T03:20:16;1.33;;;1.33;;
27113;SDS011;14648;49.730;8.614;2023-05-10T03:22:51;3.83;;;1.80;;
27113;SDS011;14648;49.730;8.614;2023-05-10T03:25:24;1.50;;;1.40;;
27113;SDS011;14648;49.730;8.614;2023-05-10T03:27:51;1.93;;;1.80;;
27113;SDS011;14648;49.730;8.614;2023-05-10T03:30:17;1.63;;;1.53;;
27113;SDS011;14648;49.730;8.614;2023-05-10T03:32:44;1.87;;;1.70;;
27113;SDS011;14648;49.730;8.614;2023-05-10T03:35:10;1.60;;;1.50;;
27113;SDS011;14648;49.730;8.614;2023-05-10T03:37:38;2.03;;;1.83;;
27113;SDS011;14648;49.730;8.614;2023-05-10T03:40:04;2.40;;;1.73;;
27113;SDS011;14648;49.730;8.614;2023-05-10T03:42:31;2.00;;;1.90;;
27113;SDS011;14648;49.730;8.614;2023-05-10T03:44:57;2.07;;;1.63;;
27113;SDS011;14648;49.730;8.614;2023-05-10T03:47:22;2.20;;;2.00;;
27113;SDS011;14648;49.730;8.614;2023-05-10T03:49:48;4.83;;;2.23;;
27113;SDS011;14648;49.730;8.614;2023-05-10T03:52:14;1.97;;;1.80;;
27113;SDS011;14648;49.730;8.614;2023-05-10T03:54:39;1.80;;;1.70;;
27113;SDS011;14648;49.730;8.614;2023-05-10T03:57:05;2.10;;;2.00;;
27113;SDS011;14648;49.730;8.614;2023-05-10T03:59:31;2.90;;;2.57;;
27113;SDS011;14648;49.730;8.614;2023-05-10T04:01:56;2.70;;;1.90;;
27113;SDS011;14648;49.730;8.614;2023-05-10T04:04:22;2.77;;;2.57;;
27113;SDS011;14648;49.730;8.614;2023-05-10T04:06:48;2.27;;;2.10;;
27113;SDS011;14648;49.730;8.614;2023-05-10T04:09:14;1.90;;;1.70;;
27113;SDS011;14648;49.730;8.614;2023-05-10T04:11:41;2.30;;;1.97;;
27113;SDS011;14648;49.730;8.614;2023-05-10T04:14:07;2.40;;;2.20;;
27113;SDS011;14648;49.730;8.614;2023-05-10T04:16:33;2.70;;;1.90;;
27113;SDS011;14648;49.730;8.614;2023-05-10T04:18:58;2.13;;;2.03;;
27113;SDS011;14648;49.730;8.614;2023-05-10T04:21:24;2.20;;;2.10;;
27113;SDS011;14648;49.730;8.614;2023-05-10T04:23:50;4.53;;;2.03;;
27113;SDS011;14648;49.730;8.614;2023-05-10T04:26:16;2.70;;;2.50;;
27113;SDS011;14648;49.730;8.614;2023-05-10T04:28:42;1.87;;;1.77;;
27113;SDS011;14648;49.730;8.614;2023-05-10T04:31:08;2.77;;;2.67;;
27113;SDS011;14648;49.730;8.614;2023-05-10T04:33:35;2.77;;;2.57;;
27113;SDS011;14648;49.730;8.614;2023-05-10T04:36:01;2.60;;;2.40;;
27113;SDS011;14648;49.730;8.614;2023-05-10T04:38:28;2.40;;;2.30;;
27113;SDS011;14648;49.730;8.614;2023-05-10T04:40:54;2.63;;;2.23;;
27113;SDS011;14648;49.730;8.614;2023-05-10T04:43:33;3.13;;;2.60;;
27113;SDS011;14648;49.730;8.614;2023-05-10T04:46:00;10.90;;;4.00;;
27113;SDS011;14648;49.730;8.614;2023-05-10T04:48:25;3.27;;;2.87;;
27113;SDS011;14648;49.730;8.614;2023-05-10T04:50:51;4.93;;;2.57;;
27113;SDS011;14648;49.730;8.614;2023-05-10T04:53:17;2.20;;;2.00;;
27113;SDS011;14648;49.730;8.614;2023-05-10T04:55:43;5.90;;;3.57;;
27113;SDS011;14648;49.730;8.614;2023-05-10T04:58:08;2.70;;;2.50;;
27113;SDS011;14648;49.730;8.614;2023-05-10T05:00:34;2.40;;;2.30;;
27113;SDS011;14648;49.730;8.614;2023-05-10T05:03:00;6.40;;;2.73;;
27113;SDS011;14648;49.730;8.614;2023-05-10T05:05:26;5.37;;;2.40;;
27113;SDS011;14648;49.730;8.614;2023-05-10T05:07:51;8.07;;;2.17;;
27113;SDS011;14648;49.730;8.614;2023-05-10T05:10:17;12.10;;;2.30;;
27113;SDS011;14648;49.730;8.614;2023-05-10T05:12:43;2.87;;;2.67;;
27113;SDS011;14648;49.730;8.614;2023-05-10T05:15:09;2.87;;;2.50;;
27113;SDS011;14648;49.730;8.614;2023-05-10T05:17:35;2.67;;;2.47;;
27113;SDS011;14648;49.730;8.614;2023-05-10T05:20:01;2.70;;;2.50;;
27113;SDS011;14648;49.730;8.614;2023-05-10T05:22:28;4.60;;;2.83;;
27113;SDS011;14648;49.730;8.614;2023-05-10T05:24:54;5.33;;;2.60;;
27113;SDS011;14648;49.730;8.614;2023-05-10T05:27:20;3.00;;;2.17;;
27113;SDS011;14648;49.730;8.614;2023-05-10T05:29:49;2.60;;;2.40;;
27113;SDS011;14648;49.730;8.614;2023-05-10T05:32:21;4.03;;;2.80;;
27113;SDS011;14648;49.730;8.614;2023-05-10T05:34:48;3.23;;;2.70;;
27113;SDS011;14648;49.730;8.614;2023-05-10T05:37:18;4.40;;;2.97;;
27113;SDS011;14648;49.730;8.614;2023-05-10T05:39:46;2.87;;;2.70;;
27113;SDS011;14648;49.730;8.614;2023-05-10T05:42:12;3.77;;;3.47;;
27113;SDS011;14648;49.730;8.614;2023-05-10T05:44:39;2.70;;;2.50;;
27113;SDS011;14648;49.730;8.614;2023-05-10T05:47:05;2.93;;;2.67;;
27113;SDS011;14648;49.730;8.614;2023-05-10T05:49:31;6.43;;;3.00;;
27113;SDS011;14648;49.730;8.614;2023-05-10T05:52:01;9.30;;;3.10;;
27113;SDS011;14648;49.730;8.614;2023-05-10T05:54:28;3.37;;;3.07;;
27113;SDS011;14648;49.730;8.614;2023-05-10T05:56:57;2.57;;;2.37;;
27113;SDS011;14648;49.730;8.614;2023-05-10T05:59:24;2.50;;;2.37;;
27113;SDS011;14648;49.730;8.614;2023-05-10T06:01:50;2.87;;;2.67;;
27113;SDS011;14648;49.730;8.614;2023-05-10T06:04:16;4.33;;;2.90;;
27113;SDS011;14648;49.730;8.614;2023-05-10T06:06:42;6.60;;;2.83;;
27113;SDS011;14648;49.730;8.614;2023-05-10T06:09:08;4.33;;;3.20;;
27113;SDS011;14648;49.730;8.614;2023-05-10T06:11:34;2.87;;;2.67;;
27113;SDS011;14648;49.730;8.614;2023-05-10T06:14:01;3.97;;;3.63;;
27113;SDS011;14648;49.730;8.614;2023-05-10T06:16:28;3.10;;;2.73;;
27113;SDS011;14648;49.730;8.614;2023-05-10T06:18:54;3.47;;;2.73;;
27113;SDS011;14648;49.730;8.614;2023-05-10T06:21:20;7.57;;;3.20;;
27113;SDS011;14648;49.730;8.614;2023-05-10T06:23:46;3.90;;;3.27;;
27113;SDS011;14648;49.730;8.614;2023-05-10T06:26:11;3.60;;;3.30;;
27113;SDS011;14648;49.730;8.614;2023-05-10T06:28:38;3.80;;;3.50;;
27113;SDS011;14648;49.730;8.614;2023-05-10T06:31:04;4.00;;;3.20;;
27113;SDS011;14648;49.730;8.614;2023-05-10T06:33:31;4.00;;;3.70;;
27113;SDS011;14648;49.730;8.614;2023-05-10T06:35:57;5.00;;;3.40;;
27113;SDS011;14648;49.730;8.614;2023-05-10T06:38:23;5.10;;;3.30;;
27113;SDS011;14648;49.730;8.614;2023-05-10T06:40:49;4.63;;;3.47;;
27113;SDS011;14648;49.730;8.614;2023-05-10T06:43:15;3.77;;;3.40;;
27113;SDS011;14648;49.730;8.614;2023-05-10T06:45:40;5.50;;;3.73;;
27113;SDS011;14648;49.730;8.614;2023-05-10T06:48:06;7.47;;;3.57;;
27113;SDS011;14648;49.730;8.614;2023-05-10T06:50:32;3.83;;;3.53;;
27113;SDS011;14648;49.730;8.614;2023-05-10T06:53:01;3.47;;;3.17;;
27113;SDS011;14648;49.730;8.614;2023-05-10T06:55:27;8.13;;;3.50;;
27113;SDS011;14648;49.730;8.614;2023-05-10T06:57:53;4.00;;;3.70;;
27113;SDS011;14648;49.730;8.614;2023-05-10T07:00:19;9.80;;;4.33;;
27113;SDS011;14648;49.730;8.614;2023-05-10T07:02:45;5.10;;;4.60;;
27113;SDS011;14648;49.730;8.614;2023-05-10T07:05:12;7.13;;;4.93;;
27113;SDS011;14648;49.730;8.614;2023-05-10T07:07:38;5.03;;;4.20;;
27113;SDS011;14648;49.730;8.614;2023-05-10T07:10:04;5.17;;;4.80;;
27113;SDS011;14648;49.730;8.614;2023-05-10T07:12:31;4.33;;;3.47;;
27113;SDS011;14648;49.730;8.614;2023-05-10T07:14:56;4.27;;;3.33;;
27113;SDS011;14648;49.730;8.614;2023-05-10T07:17:22;4.30;;;3.67;;
27113;SDS011;14648;49.730;8.614;2023-05-10T07:19:48;3.70;;;3.40;;
27113;SDS011;14648;49.730;8.614;2023-05-10T07:22:14;3.63;;;3.33;;
27113;SDS011;14648;49.730;8.614;2023-05-10T07:24:41;4.00;;;3.30;;
27113;SDS011;14648;49.730;8.614;2023-05-10T07:27:07;3.20;;;2.90;;
27113;SDS011;14648;49.730;8.614;2023-05-10T07:29:33;3.90;;;2.80;;
27113;SDS011;14648;49.730;8.614;2023-05-10T07:31:58;3.30;;;3.00;;
27113;SDS011;14648;49.730;8.614;2023-05-10T07:34:24;3.50;;;2.90;;
27113;SDS011;14648;49.730;8.614;2023-05-10T07:36:50;3.27;;;2.97;;
27113;SDS011;14648;49.730;8.614;2023-05-10T07:39:16;4.00;;;3.07;;
27113;SDS011;14648;49.730;8.614;2023-05-10T07:41:42;2.93;;;2.70;;
27113;SDS011;14648;49.730;8.614;2023-05-10T07:44:08;3.07;;;2.80;;
27113;SDS011;14648;49.730;8.614;2023-05-10T07:46:33;2.60;;;2.40;;
27113;SDS011;14648;49.730;8.614;2023-05-10T07:48:59;5.20;;;2.80;;
27113;SDS011;14648;49.730;8.614;2023-05-10T07:51:25;3.10;;;2.90;;
27113;SDS011;14648;49.730;8.614;2023-05-10T07:53:51;3.70;;;2.70;;
27113;SDS011;14648;49.730;8.614;2023-05-10T07:56:24;2.90;;;2.80;;
27113;SDS011;14648;49.730;8.614;2023-05-10T07:58:58;3.37;;;3.17;;
27113;SDS011;14648;49.730;8.614;2023-05-10T08:01:32;4.67;;;3.90;;
27113;SDS011;14648;49.730;8.614;2023-05-10T08:04:02;6.67;;;4.10;;
27113;SDS011;14648;49.730;8.614;2023-05-10T08:06:27;7.57;;;3.83;;
27113;SDS011;14648;49.730;8.614;2023-05-10T08:08:55;5.53;;;4.90;;
27113;SDS011;14648;49.730;8.614;2023-05-10T08:11:21;6.37;;;4.10;;
27113;SDS011;14648;49.730;8.614;2023-05-10T08:13:47;4.40;;;4.07;;
27113;SDS011;14648;49.730;8.614;2023-05-10T08:16:15;4.80;;;4.00;;
27113;SDS011;14648;49.730;8.614;2023-05-10T08:18:42;5.47;;;3.50;;
27113;SDS011;14648;49.730;8.614;2023-05-10T08:21:14;4.30;;;3.90;;
27113;SDS011;14648;49.730;8.614;2023-05-10T08:23:40;3.37;;;3.13;;
27113;SDS011;14648;49.730;8.614;2023-05-10T08:26:06;7.73;;;3.33;;
27113;SDS011;14648;49.730;8.614;2023-05-10T08:28:31;2.57;;;2.37;;
27113;SDS011;14648;49.730;8.614;2023-05-10T08:30:57;6.60;;;2.90;;
27113;SDS011;14648;49.730;8.614;2023-05-10T08:33:23;3.97;;;2.27;;
27113;SDS011;14648;49.730;8.614;2023-05-10T08:35:48;2.90;;;2.37;;
27113;SDS011;14648;49.730;8.614;2023-05-10T08:38:14;2.27;;;2.07;;
27113;SDS011;14648;49.730;8.614;2023-05-10T08:40:41;2.10;;;1.93;;
27113;SDS011;14648;49.730;8.614;2023-05-10T08:43:09;3.10;;;2.03;;
27113;SDS011;14648;49.730;8.614;2023-05-10T08:45:41;2.13;;;2.03;;
27113;SDS011;14648;49.730;8.614;2023-05-10T08:48:10;2.83;;;1.40;;
27113;SDS011;14648;49.730;8.614;2023-05-10T08:50:37;1.40;;;1.30;;
27113;SDS011;14648;49.730;8.614;2023-05-10T08:53:11;1.40;;;1.30;;
27113;SDS011;14648;49.730;8.614;2023-05-10T08:55:38;1.07;;;1.07;;
27113;SDS011;14648;49.730;8.614;2023-05-10T08:58:07;2.83;;;1.50;;
27113;SDS011;14648;49.730;8.614;2023-05-10T09:00:33;1.47;;;1.37;;
27113;SDS011;14648;49.730;8.614;2023-05-10T09:03:00;1.00;;;1.00;;
27113;SDS011;14648;49.730;8.614;2023-05-10T09:05:28;2.50;;;1.13;;
27113;SDS011;14648;49.730;8.614;2023-05-10T09:07:54;1.00;;;1.00;;
27113;SDS011;14648;49.730;8.614;2023-05-10T09:10:20;2.00;;;0.97;;
27113;SDS011;14648;49.730;8.614;2023-05-10T09:12:46;1.30;;;0.90;;
27113;SDS011;14648;49.730;8.614;2023-05-10T09:15:15;1.17;;;1.07;;
27113;SDS011;14648;49.730;8.614;2023-05-10T09:17:42;1.97;;;0.80;;
27113;SDS011;14648;49.730;8.614;2023-05-10T09:20:09;1.00;;;1.00;;
27113;SDS011;14648;49.730;8.614;2023-05-10T09:22:34;1.13;;;0.70;;
27113;SDS011;14648;49.730;8.614;2023-05-10T09:25:08;0.80;;;0.80;;
27113;SDS011;14648;49.730;8.614;2023-05-10T09:27:46;0.80;;;0.80;;
27113;SDS011;14648;49.730;8.614;2023-05-10T09:30:17;1.73;;;0.90;;
27113;SDS011;14648;49.730;8.614;2023-05-10T09:32:49;0.90;;;0.90;;
27113;SDS011;14648;49.730;8.614;2023-05-10T09:35:16;1.03;;;0.93;;
27113;SDS011;14648;49.730;8.614;2023-05-10T09:37:47;1.20;;;0.80;;
27113;SDS011;14648;49.730;8.614;2023-05-10T09:40:15;1.20;;;1.10;;
27113;SDS011;14648;49.730;8.614;2023-05-10T09:42:54;0.60;;;0.60;;
27113;SDS011;14648;49.730;8.614;2023-05-10T09:45:27;1.10;;;0.80;;
27113;SDS011;14648;49.730;8.614;2023-05-10T09:47:57;0.80;;;0.80;;
27113;SDS011;14648;49.730;8.614;2023-05-10T09:50:24;0.70;;;0.70;;
27113;SDS011;14648;49.730;8.614;2023-05-10T09:52:52;1.23;;;0.80;;
27113;SDS011;14648;49.730;8.614;2023-05-10T09:55:20;0.90;;;0.77;;
27113;SDS011;14648;49.730;8.614;2023-05-10T09:57:48;0.93;;;0.80;;
27113;SDS011;14648;49.730;8.614;2023-05-10T10:00:19;3.93;;;1.00;;
27113;SDS011;14648;49.730;8.614;2023-05-10T10:02:46;1.90;;;0.80;;
27113;SDS011;14648;49.730;8.614;2023-05-10T10:05:29;1.10;;;0.80;;
27113;SDS011;14648;49.730;8.614;2023-05-10T10:07:56;5.23;;;0.60;;
27113;SDS011;14648;49.730;8.614;2023-05-10T10:10:24;0.90;;;0.80;;
27113;SDS011;14648;49.730;8.614;2023-05-10T10:12:53;1.30;;;0.83;;
27113;SDS011;14648;49.730;8.614;2023-05-10T10:15:20;0.77;;;0.77;;
27113;SDS011;14648;49.730;8.614;2023-05-10T10:17:48;1.40;;;1.30;;
27113;SDS011;14648;49.730;8.614;2023-05-10T10:20:15;2.30;;;1.00;;
27113;SDS011;14648;49.730;8.614;2023-05-10T10:22:41;1.57;;;0.90;;
27113;SDS011;14648;49.730;8.614;2023-05-10T10:25:09;1.30;;;1.20;;
27113;SDS011;14648;49.730;8.614;2023-05-10T10:35:53;2.47;;;1.27;;
27113;SDS011;14648;49.730;8.614;2023-05-10T10:38:20;1.60;;;1.50;;
27113;SDS011;14648;49.730;8.614;2023-05-10T10:40:47;1.33;;;1.23;;
27113;SDS011;14648;49.730;8.614;2023-05-10T10:43:23;1.13;;;1.13;;
27113;SDS011;14648;49.730;8.614;2023-05-10T10:46:12;2.07;;;1.30;;
27113;SDS011;14648;49.730;8.614;2023-05-10T10:48:40;0.97;;;0.97;;
27113;SDS011;14648;49.730;8.614;2023-05-10T10:51:13;1.23;;;1.13;;
27113;SDS011;14648;49.730;8.614;2023-05-10T10:53:39;1.50;;;1.40;;
27113;SDS011;14648;49.730;8.614;2023-05-10T10:56:09;1.53;;;1.43;;
27113;SDS011;14648;49.730;8.614;2023-05-10T10:58:38;2.27;;;2.07;;
27113;SDS011;14648;49.730;8.614;2023-05-10T11:01:12;2.50;;;1.40;;
27113;SDS011;14648;49.730;8.614;2023-05-10T11:03:55;1.13;;;1.13;;
27113;SDS011;14648;49.730;8.614;2023-05-10T11:06:35;1.33;;;1.10;;
27113;SDS011;14648;49.730;8.614;2023-05-10T11:09:08;1.43;;;1.33;;
27113;SDS011;14648;49.730;8.614;2023-05-10T11:11:36;1.83;;;1.00;;
27113;SDS011;14648;49.730;8.614;2023-05-10T11:14:19;1.17;;;1.07;;
27113;SDS011;14648;49.730;8.614;2023-05-10T11:16:47;1.00;;;0.90;;
27113;SDS011;14648;49.730;8.614;2023-05-10T11:19:13;4.13;;;0.90;;
27113;SDS011;14648;49.730;8.614;2023-05-10T11:21:44;1.87;;;1.20;;
27113;SDS011;14648;49.730;8.614;2023-05-10T11:24:16;4.10;;;0.83;;
27113;SDS011;14648;49.730;8.614;2023-05-10T11:26:49;0.60;;;0.60;;
27113;SDS011;14648;49.730;8.614;2023-05-10T11:29:16;1.00;;;0.60;;
27113;SDS011;14648;49.730;8.614;2023-05-10T11:31:43;1.20;;;0.80;;
27113;SDS011;14648;49.730;8.614;2023-05-10T11:34:10;0.80;;;0.80;;
27113;SDS011;14648;49.730;8.614;2023-05-10T11:36:37;1.80;;;0.80;;
27113;SDS011;14648;49.730;8.614;2023-05-10T11:39:03;3.07;;;0.90;;
27113;SDS011;14648;49.730;8.614;2023-05-10T11:41:30;4.47;;;0.80;;
27113;SDS011;14648;49.730;8.614;2023-05-10T11:43:56;1.20;;;1.10;;
27113;SDS011;14648;49.730;8.614;2023-05-10T11:46:24;0.93;;;0.93;;
27113;SDS011;14648;49.730;8.614;2023-05-10T11:49:00;0.70;;;0.70;;
27113;SDS011;14648;49.730;8.614;2023-05-10T11:51:29;0.90;;;0.90;;
27113;SDS011;14648;49.730;8.614;2023-05-10T11:53:58;0.93;;;0.93;;
27113;SDS011;14648;49.730;8.614;2023-05-10T11:56:24;2.30;;;1.07;;
27113;SDS011;14648;49.730;8.614;2023-05-10T11:58:52;5.50;;;1.10;;
27113;SDS011;14648;49.730;8.614;2023-05-10T12:01:20;2.43;;;0.90;;
27113;SDS011;14648;49.730;8.614;2023-05-10T12:03:48;1.00;;;0.90;;
27113;SDS011;14648;49.730;8.614;2023-05-10T12:06:15;0.90;;;0.90;;
27113;SDS011;14648;49.730;8.614;2023-05-10T12:08:46;0.70;;;0.70;;
27113;SDS011;14648;49.730;8.614;2023-05-10T12:11:13;0.80;;;0.80;;
27113;SDS011;14648;49.730;8.614;2023-05-10T12:13:43;0.97;;;0.90;;
27113;SDS011;14648;49.730;8.614;2023-05-10T12:16:14;0.80;;;0.80;;
27113;SDS011;14648;49.730;8.614;2023-05-10T12:18:42;1.00;;;0.70;;
27113;SDS011;14648;49.730;8.614;2023-05-10T12:21:09;6.53;;;0.93;;
27113;SDS011;14648;49.730;8.614;2023-05-10T12:23:36;0.70;;;0.70;;
27113;SDS011;14648;49.730;8.614;2023-05-10T12:26:03;1.77;;;0.90;;
27113;SDS011;14648;49.730;8.614;2023-05-10T12:28:31;0.80;;;0.80;;
27113;SDS011;14648;49.730;8.614;2023-05-10T12:30:58;0.87;;;0.87;;
27113;SDS011;14648;49.730;8.614;2023-05-10T12:33:24;9.70;;;0.90;;
27113;SDS011;14648;49.730;8.614;2023-05-10T12:35:52;0.80;;;0.70;;
27113;SDS011;14648;49.730;8.614;2023-05-10T12:38:29;0.70;;;0.70;;
27113;SDS011;14648;49.730;8.614;2023-05-10T12:40:59;1.40;;;1.00;;
27113;SDS011;14648;49.730;8.614;2023-05-10T12:43:27;2.87;;;0.93;;
27113;SDS011;14648;49.730;8.614;2023-05-10T12:45:54;1.27;;;0.83;;
27113;SDS011;14648;49.730;8.614;2023-05-10T12:48:19;0.80;;;0.70;;
27113;SDS011;14648;49.730;8.614;2023-05-10T12:50:45;1.00;;;0.90;;
27113;SDS011;14648;49.730;8.614;2023-05-10T12:53:13;0.73;;;0.73;;
27113;SDS011;14648;49.730;8.614;2023-05-10T12:55:40;1.67;;;0.90;;
27113;SDS011;14648;49.730;8.614;2023-05-10T12:58:09;1.37;;;0.80;;
27113;SDS011;14648;49.730;8.614;2023-05-10T13:00:35;2.50;;;1.20;;
27113;SDS011;14648;49.730;8.614;2023-05-10T13:03:03;4.00;;;1.30;;
27113;SDS011;14648;49.730;8.614;2023-05-10T13:05:32;3.90;;;1.00;;
27113;SDS011;14648;49.730;8.614;2023-05-10T13:07:58;1.53;;;1.20;;
27113;SDS011;14648;49.730;8.614;2023-05-10T13:10:24;4.53;;;1.20;;
27113;SDS011;14648;49.730;8.614;2023-05-10T13:12:50;2.57;;;0.97;;
27113;SDS011;14648;49.730;8.614;2023-05-10T13:15:16;1.23;;;1.13;;
27113;SDS011;14648;49.730;8.614;2023-05-10T13:17:42;1.13;;;0.80;;
27113;SDS011;14648;49.730;8.614;2023-05-10T13:20:08;1.87;;;1.30;;
27113;SDS011;14648;49.730;8.614;2023-05-10T13:22:35;1.50;;;1.00;;
27113;SDS011;14648;49.730;8.614;2023-05-10T13:25:01;4.33;;;1.10;;
27113;SDS011;14648;49.730;8.614;2023-05-10T13:27:27;1.63;;;1.30;;
27113;SDS011;14648;49.730;8.614;2023-05-10T13:29:53;2.33;;;0.90;;
27113;SDS011;14648;49.730;8.614;2023-05-10T13:32:19;1.90;;;0.70;;
27113;SDS011;14648;49.730;8.614;2023-05-10T13:34:45;1.20;;;0.80;;
27113;SDS011;14648;49.730;8.614;2023-05-10T13:37:14;0.70;;;0.70;;
27113;SDS011;14648;49.730;8.614;2023-05-10T13:39:41;5.90;;;1.10;;
27113;SDS011;14648;49.730;8.614;2023-05-10T13:42:07;1.07;;;0.70;;
27113;SDS011;14648;49.730;8.614;2023-05-10T13:44:32;1.37;;;0.90;;
27113;SDS011;14648;49.730;8.614;2023-05-10T13:46:58;5.10;;;0.70;;
27113;SDS011;14648;49.730;8.614;2023-05-10T13:49:24;3.33;;;1.13;;
27113;SDS011;14648;49.730;8.614;2023-05-10T13:51:50;1.53;;;0.70;;
27113;SDS011;14648;49.730;8.614;2023-05-10T13:54:16;1.00;;;0.80;;
27113;SDS011;14648;49.730;8.614;2023-05-10T13:56:44;1.77;;;0.70;;
27113;SDS011;14648;49.730;8.614;2023-05-10T13:59:12;0.90;;;0.90;;
27113;SDS011;14648;49.730;8.614;2023-05-10T14:01:39;7.40;;;0.80;;
27113;SDS011;14648;49.730;8.614;2023-05-10T14:04:06;1.30;;;0.73;;
27113;SDS011;14648;49.730;8.614;2023-05-10T14:06:35;4.00;;;0.80;;
27113;SDS011;14648;49.730;8.614;2023-05-10T14:09:01;2.30;;;0.93;;
27113;SDS011;14648;49.730;8.614;2023-05-10T14:11:28;1.33;;;1.23;;
27113;SDS011;14648;49.730;8.614;2023-05-10T14:13:54;1.40;;;0.73;;
27113;SDS011;14648;49.730;8.614;2023-05-10T14:16:20;4.70;;;1.10;;
27113;SDS011;14648;49.730;8.614;2023-05-10T14:18:46;2.60;;;0.90;;
27113;SDS011;14648;49.730;8.614;2023-05-10T14:21:12;0.90;;;0.80;;
27113;SDS011;14648;49.730;8.614;2023-05-10T14:23:38;3.30;;;1.43;;
27113;SDS011;14648;49.730;8.614;2023-05-10T14:26:04;2.00;;;0.90;;
27113;SDS011;14648;49.730;8.614;2023-05-10T14:28:30;1.03;;;0.80;;
27113;SDS011;14648;49.730;8.614;2023-05-10T14:30:55;1.00;;;0.70;;
27113;SDS011;14648;49.730;8.614;2023-05-10T14:33:21;1.17;;;0.73;;
27113;SDS011;14648;49.730;8.614;2023-05-10T14:35:47;2.70;;;1.00;;
27113;SDS011;14648;49.730;8.614;2023-05-10T14:38:13;2.20;;;1.03;;
27113;SDS011;14648;49.730;8.614;2023-05-10T14:40:39;1.10;;;0.70;;
27113;SDS011;14648;49.730;8.614;2023-05-10T14:43:05;0.97;;;0.80;;
27113;SDS011;14648;49.730;8.614;2023-05-10T14:45:30;2.13;;;0.63;;
27113;SDS011;14648;49.730;8.614;2023-05-10T14:47:56;2.93;;;0.70;;
27113;SDS011;14648;49.730;8.614;2023-05-10T14:50:23;2.57;;;0.80;;
27113;SDS011;14648;49.730;8.614;2023-05-10T14:52:49;1.00;;;0.73;;
27113;SDS011;14648;49.730;8.614;2023-05-10T14:55:15;1.43;;;0.80;;
27113;SDS011;14648;49.730;8.614;2023-05-10T14:57:41;3.37;;;0.80;;
27113;SDS011;14648;49.730;8.614;2023-05-10T15:00:07;1.60;;;0.80;;
27113;SDS011;14648;49.730;8.614;2023-05-10T15:02:34;1.03;;;0.80;;
27113;SDS011;14648;49.730;8.614;2023-05-10T15:04:59;0.70;;;0.70;;
27113;SDS011;14648;49.730;8.614;2023-05-10T15:07:25;0.70;;;0.70;;
27113;SDS011;14648;49.730;8.614;2023-05-10T15:09:51;0.90;;;0.70;;
27113;SDS011;14648;49.730;8.614;2023-05-10T15:12:17;2.40;;;0.90;;
27113;SDS011;14648;49.730;8.614;2023-05-10T15:14:43;1.33;;;0.70;;